createdAt,value
2023-03-17T00:02:21.296Z,8.15
2023-03-17T00:04:52.454Z,8.16
2023-03-17T00:07:22.788Z,8.17
2023-03-17T00:09:52.622Z,8.16
2023-03-17T00:12:24.877Z,8.14
2023-03-17T00:14:54.473Z,8.14
2023-03-17T00:17:24.251Z,8.12
2023-03-17T00:19:53.852Z,8.09
2023-03-17T00:22:23.712Z,8.07
2023-03-17T00:24:53.300Z,8.07
2023-03-17T00:27:26.519Z,8.09
2023-03-17T00:29:56.554Z,8.12
2023-03-17T00:32:26.488Z,8.11
2023-03-17T00:34:56.532Z,8.09
2023-03-17T00:37:26.152Z,8.06
2023-03-17T00:39:56.346Z,7.99
2023-03-17T00:42:31.154Z,7.91
2023-03-17T00:45:01.428Z,7.85
2023-03-17T00:47:32.001Z,7.80
2023-03-17T00:50:01.622Z,7.76
2023-03-17T00:52:31.207Z,7.74
2023-03-17T00:55:01.047Z,7.73
2023-03-17T00:57:33.299Z,7.70
2023-03-17T01:00:03.309Z,7.69
2023-03-17T01:02:33.538Z,7.68
2023-03-17T01:05:06.758Z,7.68
2023-03-17T01:07:37.205Z,7.71
2023-03-17T01:10:10.603Z,7.75
2023-03-17T01:12:43.035Z,7.77
2023-03-17T01:15:13.441Z,7.80
2023-03-17T01:17:43.428Z,7.81
2023-03-17T01:20:18.779Z,7.82
2023-03-17T01:22:48.399Z,7.79
2023-03-17T01:25:18.266Z,7.80
2023-03-17T01:27:50.903Z,7.81
2023-03-17T01:30:28.750Z,7.78
2023-03-17T01:33:00.036Z,7.75
2023-03-17T01:35:31.614Z,7.73
2023-03-17T01:38:01.633Z,7.73
2023-03-17T01:40:33.430Z,7.75
2023-03-17T01:43:18.065Z,7.75
2023-03-17T01:46:27.835Z,7.73
2023-03-17T01:49:15.655Z,7.72
2023-03-17T01:51:51.741Z,7.71
2023-03-17T01:54:25.189Z,7.72
2023-03-17T01:56:56.288Z,7.70
2023-03-17T01:59:31.361Z,7.69
2023-03-17T02:02:04.313Z,7.66
2023-03-17T02:04:34.885Z,7.65
2023-03-17T02:07:05.368Z,7.64
2023-03-17T02:09:35.860Z,7.65
2023-03-17T02:12:07.370Z,7.65
2023-03-17T02:14:39.978Z,7.62
2023-03-17T02:17:10.394Z,7.61
2023-03-17T02:19:40.004Z,7.59
2023-03-17T02:22:12.496Z,7.59
2023-03-17T02:24:43.799Z,7.58
2023-03-17T02:27:16.411Z,7.57
2023-03-17T02:29:46.499Z,7.53
2023-03-17T02:32:17.780Z,7.50
2023-03-17T02:34:48.049Z,7.43
2023-03-17T02:37:21.943Z,7.39
2023-03-17T02:39:51.589Z,7.37
2023-03-17T02:42:22.572Z,7.35
2023-03-17T02:44:52.261Z,7.33
2023-03-17T02:47:22.327Z,7.29
2023-03-17T02:49:52.269Z,7.27
2023-03-17T02:52:24.548Z,7.23
2023-03-17T02:54:54.241Z,7.21
2023-03-17T02:57:23.838Z,7.19
2023-03-17T02:59:53.557Z,7.15
2023-03-17T03:02:23.142Z,7.09
2023-03-17T03:04:53.111Z,7.06
2023-03-17T03:07:25.554Z,7.02
2023-03-17T03:09:55.152Z,7.01
2023-03-17T03:12:24.878Z,7.01
2023-03-17T03:14:54.460Z,6.98
2023-03-17T03:17:24.194Z,6.91
2023-03-17T03:19:53.773Z,6.87
2023-03-17T03:22:25.954Z,6.84
2023-03-17T03:24:56.031Z,6.80
2023-03-17T03:27:25.738Z,6.80
2023-03-17T03:29:55.578Z,6.79
2023-03-17T03:32:25.152Z,6.76
2023-03-17T03:34:54.822Z,6.76
2023-03-17T03:37:27.010Z,6.76
2023-03-17T03:39:56.862Z,6.77
2023-03-17T03:42:26.459Z,6.76
2023-03-17T03:44:56.066Z,6.74
2023-03-17T03:47:25.729Z,6.71
2023-03-17T03:49:55.304Z,6.71
2023-03-17T03:52:27.526Z,6.68
2023-03-17T03:54:57.096Z,6.68
2023-03-17T03:57:26.686Z,6.70
2023-03-17T03:59:56.291Z,6.73
2023-03-17T04:02:25.980Z,6.78
2023-03-17T04:04:56.474Z,6.84
2023-03-17T04:07:28.679Z,6.89
2023-03-17T04:09:59.855Z,6.89
2023-03-17T04:12:29.429Z,6.86
2023-03-17T04:14:58.999Z,6.86
2023-03-17T04:17:28.565Z,6.86
2023-03-17T04:19:58.467Z,6.89
2023-03-17T04:22:30.760Z,6.90
2023-03-17T04:25:00.437Z,6.93
2023-03-17T04:27:30.019Z,6.95
2023-03-17T04:30:00.033Z,6.95
2023-03-17T04:32:29.683Z,6.98
2023-03-17T04:34:59.373Z,6.99
2023-03-17T04:37:34.463Z,6.99
2023-03-17T04:40:05.267Z,7.00
2023-03-17T04:42:34.826Z,7.01
2023-03-17T04:45:04.404Z,6.99
2023-03-17T04:47:33.981Z,6.95
2023-03-17T04:50:03.868Z,6.97
2023-03-17T04:52:36.476Z,6.98
2023-03-17T04:55:06.787Z,6.99
2023-03-17T04:57:36.691Z,6.99
2023-03-17T05:00:07.770Z,7.00
2023-03-17T05:02:39.118Z,7.01
2023-03-17T05:05:09.861Z,7.01
2023-03-17T05:07:42.021Z,7.02
2023-03-17T05:10:13.822Z,7.03
2023-03-17T05:12:43.454Z,7.06
2023-03-17T05:15:14.347Z,7.06
2023-03-17T05:17:43.954Z,7.08
2023-03-17T05:20:14.748Z,7.07
2023-03-17T05:22:47.180Z,7.10
2023-03-17T05:25:17.004Z,7.13
2023-03-17T05:27:46.588Z,7.15
2023-03-17T05:30:17.030Z,7.15
2023-03-17T05:32:46.951Z,7.14
2023-03-17T05:35:17.429Z,7.14
2023-03-17T05:37:49.633Z,7.11
2023-03-17T05:40:19.551Z,7.13
2023-03-17T05:42:49.091Z,7.13
2023-03-17T05:45:18.822Z,7.16
2023-03-17T05:47:48.744Z,7.15
2023-03-17T05:50:18.853Z,7.17
2023-03-17T05:52:51.652Z,7.19
2023-03-17T05:55:21.718Z,7.21
2023-03-17T05:57:51.384Z,7.25
2023-03-17T06:00:23.786Z,7.27
2023-03-17T06:02:53.626Z,7.29
2023-03-17T06:05:23.763Z,7.33
2023-03-17T06:07:56.665Z,7.35
2023-03-17T06:10:27.168Z,7.38
2023-03-17T06:12:57.125Z,7.42
2023-03-17T06:15:26.867Z,7.46
2023-03-17T06:17:56.491Z,7.50
2023-03-17T06:20:26.103Z,7.55
2023-03-17T06:23:04.499Z,7.63
2023-03-17T06:25:35.228Z,7.69
2023-03-17T06:28:05.585Z,7.77
2023-03-17T06:30:38.737Z,7.84
2023-03-17T06:33:10.179Z,7.91
2023-03-17T06:35:40.104Z,8.01
2023-03-17T06:38:13.478Z,8.13
2023-03-17T06:40:43.155Z,8.24
2023-03-17T06:43:13.518Z,8.45
2023-03-17T06:45:43.110Z,8.75
2023-03-17T06:48:13.063Z,9.08
2023-03-17T06:50:42.612Z,9.36
2023-03-17T06:53:14.739Z,9.63
2023-03-17T06:55:45.096Z,9.91
2023-03-17T06:58:15.965Z,10.09
2023-03-17T07:00:45.985Z,10.20
2023-03-17T07:03:15.712Z,10.26
2023-03-17T07:05:45.567Z,10.35
2023-03-17T07:08:17.994Z,10.47
2023-03-17T07:10:47.701Z,10.70
2023-03-17T07:13:17.234Z,11.08
2023-03-17T07:15:48.265Z,11.56
2023-03-17T07:18:18.900Z,12.12
2023-03-17T07:20:48.888Z,12.56
2023-03-17T07:23:23.796Z,12.93
2023-03-17T07:25:53.421Z,13.46
2023-03-17T07:28:23.089Z,13.96
2023-03-17T07:30:52.931Z,14.45
2023-03-17T07:33:23.448Z,14.80
2023-03-17T07:35:54.186Z,15.07
2023-03-17T07:38:26.577Z,15.38
2023-03-17T07:40:56.513Z,15.73
2023-03-17T07:43:26.056Z,16.11
2023-03-17T07:45:55.779Z,16.36
2023-03-17T07:48:26.230Z,16.47
2023-03-17T07:50:55.973Z,16.41
2023-03-17T07:53:28.252Z,16.53
2023-03-17T07:55:57.804Z,16.38
2023-03-17T07:58:27.818Z,16.14
2023-03-17T08:00:57.834Z,15.93
2023-03-17T08:03:27.509Z,15.79
2023-03-17T08:05:58.029Z,15.76
2023-03-17T08:08:30.983Z,15.40
2023-03-17T08:11:04.022Z,15.13
2023-03-17T08:13:34.034Z,14.88
2023-03-17T08:16:03.967Z,14.67
2023-03-17T08:18:34.109Z,14.45
2023-03-17T08:21:03.743Z,14.29
2023-03-17T08:23:36.558Z,14.20
2023-03-17T08:26:09.110Z,14.29
2023-03-17T08:28:38.879Z,14.38
2023-03-17T08:31:13.606Z,14.48
2023-03-17T08:33:43.354Z,14.54
2023-03-17T08:36:14.146Z,14.65
2023-03-17T08:38:47.596Z,14.71
2023-03-17T08:41:19.334Z,14.88
2023-03-17T08:43:50.467Z,14.88
2023-03-17T08:46:21.737Z,14.68
2023-03-17T08:48:52.600Z,14.45
2023-03-17T08:51:24.461Z,14.29
2023-03-17T08:53:57.641Z,14.22
2023-03-17T08:56:27.432Z,14.12
2023-03-17T08:58:57.175Z,14.09
2023-03-17T09:01:27.784Z,14.01
2023-03-17T09:03:58.047Z,13.95
2023-03-17T09:06:28.112Z,14.01
2023-03-17T09:09:00.457Z,14.26
2023-03-17T09:11:32.715Z,14.72
2023-03-17T09:14:03.693Z,15.48
2023-03-17T09:16:34.382Z,16.31
2023-03-17T09:19:04.507Z,17.02
2023-03-17T09:21:34.095Z,17.26
2023-03-17T09:24:07.317Z,17.52
2023-03-17T09:26:37.021Z,18.00
2023-03-17T09:29:07.273Z,18.51
2023-03-17T09:31:38.080Z,18.72
2023-03-17T09:34:08.292Z,18.89
2023-03-17T09:36:37.899Z,18.87
2023-03-17T09:39:10.111Z,18.71
2023-03-17T09:41:57.869Z,18.46
2023-03-17T09:44:38.024Z,18.18
2023-03-17T09:47:19.486Z,18.22
2023-03-17T09:49:51.737Z,18.47
2023-03-17T09:52:25.938Z,18.93
2023-03-17T09:54:59.062Z,19.19
2023-03-17T09:57:32.434Z,19.46
2023-03-17T10:00:06.566Z,19.53
2023-03-17T10:02:38.470Z,19.51
2023-03-17T10:05:16.713Z,19.37
2023-03-17T10:07:49.893Z,18.97
2023-03-17T10:10:25.163Z,18.57
2023-03-17T10:13:02.131Z,18.15
2023-03-17T10:15:37.456Z,18.06
2023-03-17T10:18:12.693Z,17.85
2023-03-17T10:20:49.193Z,17.74
2023-03-17T10:23:22.872Z,17.69
2023-03-17T10:25:55.902Z,17.53
2023-03-17T10:28:31.792Z,17.38
2023-03-17T10:31:05.849Z,17.13
2023-03-17T10:33:35.760Z,16.91
2023-03-17T10:36:11.211Z,16.72
2023-03-17T10:38:43.244Z,16.61
2023-03-17T10:41:17.052Z,16.64
2023-03-17T10:43:50.633Z,16.67
2023-03-17T10:46:23.340Z,16.71
2023-03-17T10:48:55.257Z,16.78
2023-03-17T10:51:30.973Z,16.83
2023-03-17T10:54:04.285Z,16.83
2023-03-17T10:56:39.633Z,16.75
2023-03-17T10:59:10.814Z,16.67
2023-03-17T11:01:42.260Z,16.69
2023-03-17T11:04:28.421Z,16.71
2023-03-17T11:06:58.769Z,16.66
2023-03-17T11:09:29.316Z,16.59
2023-03-17T11:12:10.764Z,16.52
2023-03-17T11:14:40.494Z,16.38
2023-03-17T11:17:19.353Z,16.24
2023-03-17T11:19:55.793Z,16.19
2023-03-17T11:22:32.347Z,16.16
2023-03-17T11:25:09.503Z,16.18
2023-03-17T11:27:47.089Z,16.27
2023-03-17T11:30:22.171Z,16.34
2023-03-17T11:32:57.693Z,16.40
2023-03-17T11:35:36.931Z,16.40
2023-03-17T11:38:16.766Z,16.30
2023-03-17T11:40:58.323Z,16.27
2023-03-17T11:43:36.370Z,16.20
2023-03-17T11:46:09.540Z,16.16
2023-03-17T11:48:49.989Z,16.17
2023-03-17T11:51:27.658Z,16.26
2023-03-17T11:54:09.542Z,16.38
2023-03-17T11:56:44.928Z,16.50
2023-03-17T11:59:21.973Z,16.58
2023-03-17T12:01:58.162Z,16.69
2023-03-17T12:04:34.485Z,16.84
2023-03-17T12:07:11.906Z,16.90
2023-03-17T12:09:45.687Z,16.96
2023-03-17T12:12:17.871Z,17.00
2023-03-17T12:14:52.389Z,17.07
2023-03-17T12:17:27.139Z,17.08
2023-03-17T12:20:06.749Z,17.03
2023-03-17T12:22:41.204Z,16.92
2023-03-17T12:25:18.047Z,16.86
2023-03-17T12:27:53.295Z,16.88
2023-03-17T12:30:32.898Z,16.95
2023-03-17T12:33:09.652Z,17.05
2023-03-17T12:35:40.648Z,17.07
2023-03-17T12:38:12.942Z,17.01
2023-03-17T12:40:54.866Z,17.05
2023-03-17T12:43:43.005Z,17.09
2023-03-17T12:46:28.987Z,17.12
2023-03-17T12:49:16.851Z,17.14
2023-03-17T12:51:54.173Z,17.20
2023-03-17T12:54:27.308Z,17.22
2023-03-17T12:57:04.356Z,17.09
2023-03-17T12:59:34.145Z,17.00
2023-03-17T13:02:18.780Z,16.95
2023-03-17T13:04:57.866Z,16.98
2023-03-17T13:07:28.534Z,17.11
2023-03-17T13:10:39.926Z,17.20
2023-03-17T13:13:25.481Z,17.16
2023-03-17T13:16:00.993Z,17.13
2023-03-17T13:18:49.469Z,17.11
2023-03-17T13:21:26.347Z,17.12
2023-03-17T13:24:22.324Z,17.05
2023-03-17T13:27:02.311Z,17.03
2023-03-17T13:29:49.354Z,17.05
2023-03-17T13:32:40.968Z,17.07
2023-03-17T13:35:22.164Z,17.07
2023-03-17T13:38:10.336Z,17.11
2023-03-17T13:40:48.263Z,17.16
2023-03-17T13:43:32.635Z,17.18
2023-03-17T13:46:28.488Z,17.21
2023-03-17T13:48:58.509Z,17.29
2023-03-17T13:51:35.369Z,17.34
2023-03-17T13:54:24.179Z,17.37
2023-03-17T13:56:55.073Z,17.38
2023-03-17T13:59:25.497Z,17.34
2023-03-17T14:01:58.763Z,17.31
2023-03-17T14:04:30.788Z,17.17
2023-03-17T14:07:09.301Z,17.06
2023-03-17T14:09:41.442Z,17.01
2023-03-17T14:12:18.236Z,17.01
2023-03-17T14:14:52.159Z,17.06
2023-03-17T14:17:22.466Z,17.07
2023-03-17T14:20:06.438Z,17.09
2023-03-17T14:22:44.811Z,17.10
2023-03-17T14:25:17.339Z,17.12
2023-03-17T14:27:47.062Z,17.12
2023-03-17T14:30:19.754Z,17.14
2023-03-17T14:32:50.444Z,17.13
2023-03-17T14:35:19.808Z,17.04
2023-03-17T14:37:52.045Z,17.00
2023-03-17T14:40:23.033Z,16.94
2023-03-17T14:42:52.388Z,16.93
2023-03-17T14:45:23.607Z,16.90
2023-03-17T14:47:52.914Z,16.91
2023-03-17T14:50:23.782Z,16.94
2023-03-17T14:52:55.905Z,16.89
2023-03-17T14:55:25.334Z,16.88
2023-03-17T14:57:55.012Z,16.87
2023-03-17T15:00:34.634Z,16.88
2023-03-17T15:03:05.313Z,16.84
2023-03-17T15:05:41.521Z,16.80
2023-03-17T15:08:26.416Z,16.73
2023-03-17T15:10:58.343Z,16.65
2023-03-17T15:13:27.723Z,16.55
2023-03-17T15:15:59.038Z,16.46
2023-03-17T15:18:28.347Z,16.37
2023-03-17T15:20:59.537Z,16.31
2023-03-17T15:23:30.580Z,16.28
2023-03-17T15:26:02.487Z,16.22
2023-03-17T15:28:31.976Z,16.17
2023-03-17T15:31:02.113Z,16.17
2023-03-17T15:33:36.997Z,16.18
2023-03-17T15:36:07.721Z,16.20
2023-03-17T15:38:39.057Z,16.16
2023-03-17T15:41:11.122Z,16.08
2023-03-17T15:43:40.528Z,15.95
2023-03-17T15:46:10.647Z,15.83
2023-03-17T15:48:40.060Z,15.76
2023-03-17T15:51:09.625Z,15.71
2023-03-17T15:53:38.974Z,15.68
2023-03-17T15:56:12.191Z,15.67
2023-03-17T15:58:42.132Z,15.69
2023-03-17T16:01:11.739Z,15.69
2023-03-17T16:03:41.438Z,15.71
2023-03-17T16:06:14.979Z,15.74
2023-03-17T16:08:44.375Z,15.79
2023-03-17T16:11:19.522Z,15.79
2023-03-17T16:13:49.495Z,15.75
2023-03-17T16:16:21.496Z,15.69
2023-03-17T16:18:51.646Z,15.61
2023-03-17T16:21:22.270Z,15.49
2023-03-17T16:23:51.804Z,15.34
2023-03-17T16:26:23.747Z,15.20
2023-03-17T16:28:53.968Z,15.06
2023-03-17T16:31:29.346Z,14.95
2023-03-17T16:33:58.927Z,14.87
2023-03-17T16:36:28.325Z,14.83
2023-03-17T16:38:58.072Z,14.79
2023-03-17T16:41:30.719Z,14.76
2023-03-17T16:44:00.736Z,14.71
2023-03-17T16:46:32.725Z,14.66
2023-03-17T16:49:04.054Z,14.61
2023-03-17T16:51:33.377Z,14.55
2023-03-17T16:54:02.698Z,14.48
2023-03-17T16:56:34.754Z,14.43
2023-03-17T16:59:04.137Z,14.36
2023-03-17T17:01:33.505Z,14.31
2023-03-17T17:04:02.865Z,14.28
2023-03-17T17:06:32.911Z,14.22
2023-03-17T17:09:02.273Z,14.17
2023-03-17T17:11:34.249Z,14.14
2023-03-17T17:14:03.762Z,14.12
2023-03-17T17:16:33.828Z,14.08
2023-03-17T17:19:03.252Z,14.05
2023-03-17T17:21:33.959Z,14.02
2023-03-17T17:24:03.702Z,13.97
2023-03-17T17:26:35.630Z,13.91
2023-03-17T17:29:04.986Z,13.83
2023-03-17T17:31:34.462Z,13.71
2023-03-17T17:34:03.845Z,13.60
2023-03-17T17:36:33.259Z,13.52
2023-03-17T17:39:06.558Z,13.48
2023-03-17T17:41:38.514Z,13.43
2023-03-17T17:44:07.930Z,13.39
2023-03-17T17:46:37.635Z,13.35
2023-03-17T17:49:07.222Z,13.30
2023-03-17T17:51:36.593Z,13.25
2023-03-17T17:54:06.115Z,13.19
2023-03-17T17:56:40.205Z,13.15
2023-03-17T17:59:09.523Z,13.12
2023-03-17T18:01:38.907Z,13.09
2023-03-17T18:04:09.618Z,13.06
2023-03-17T18:06:38.994Z,13.02
2023-03-17T18:09:08.380Z,12.98
2023-03-17T18:11:42.073Z,12.95
2023-03-17T18:14:11.592Z,12.92
2023-03-17T18:16:41.483Z,12.92
2023-03-17T18:19:11.818Z,12.91
2023-03-17T18:21:41.448Z,12.91
2023-03-17T18:24:11.136Z,12.92
2023-03-17T18:26:43.097Z,12.92
2023-03-17T18:29:12.601Z,12.94
2023-03-17T18:31:42.744Z,12.93
2023-03-17T18:34:14.677Z,12.94
2023-03-17T18:36:44.952Z,12.94
2023-03-17T18:39:14.285Z,12.93
2023-03-17T18:41:46.256Z,12.91
2023-03-17T18:44:15.723Z,12.90
2023-03-17T18:46:45.045Z,12.91
2023-03-17T18:49:14.373Z,12.91
2023-03-17T18:51:43.718Z,12.89
2023-03-17T18:54:13.712Z,12.88
2023-03-17T18:56:43.058Z,12.87
2023-03-17T18:59:14.980Z,12.84
2023-03-17T19:01:44.404Z,12.83
2023-03-17T19:04:13.896Z,12.81
2023-03-17T19:06:43.274Z,12.79
2023-03-17T19:09:12.982Z,12.78
2023-03-17T19:11:42.448Z,12.76
2023-03-17T19:14:11.878Z,12.75
2023-03-17T19:16:45.040Z,12.73
2023-03-17T19:19:14.400Z,12.72
2023-03-17T19:21:43.730Z,12.70
2023-03-17T19:24:14.268Z,12.68
2023-03-17T19:26:43.621Z,12.68
2023-03-17T19:29:13.104Z,12.66
2023-03-17T19:31:48.090Z,12.65
2023-03-17T19:34:18.015Z,12.64
2023-03-17T19:36:48.265Z,12.61
2023-03-17T19:39:17.680Z,12.62
2023-03-17T19:41:48.457Z,12.61
2023-03-17T19:44:17.787Z,12.63
2023-03-17T19:46:49.787Z,12.64
2023-03-17T19:49:20.357Z,12.64
2023-03-17T19:51:49.910Z,12.63
2023-03-17T19:54:23.425Z,12.60
2023-03-17T19:56:55.552Z,12.59
2023-03-17T19:59:24.884Z,12.57
2023-03-17T20:01:56.996Z,12.55
2023-03-17T20:04:26.410Z,12.55
2023-03-17T20:06:56.948Z,12.53
2023-03-17T20:09:27.194Z,12.54
2023-03-17T20:11:56.821Z,12.51
2023-03-17T20:14:26.302Z,12.50
2023-03-17T20:16:58.232Z,12.48
2023-03-17T20:19:27.592Z,12.47
2023-03-17T20:21:58.562Z,12.47
2023-03-17T20:24:29.188Z,12.46
2023-03-17T20:26:59.574Z,12.46
2023-03-17T20:29:28.936Z,12.43
2023-03-17T20:32:03.920Z,12.36
2023-03-17T20:34:34.704Z,12.29
2023-03-17T20:37:04.327Z,12.22
2023-03-17T20:39:34.218Z,12.15
2023-03-17T20:42:09.952Z,12.07
2023-03-17T20:44:39.460Z,11.99
2023-03-17T20:47:11.441Z,11.95
2023-03-17T20:49:42.627Z,11.92
2023-03-17T20:52:14.362Z,11.84
2023-03-17T20:54:43.695Z,11.72
2023-03-17T20:57:14.276Z,11.54
2023-03-17T20:59:45.218Z,11.38
2023-03-17T21:02:19.602Z,11.26
2023-03-17T21:04:49.499Z,11.15
2023-03-17T21:07:19.480Z,11.06
2023-03-17T21:09:49.008Z,10.96
2023-03-17T21:12:19.008Z,10.89
2023-03-17T21:14:48.498Z,10.83
2023-03-17T21:17:20.719Z,10.80
2023-03-17T21:19:50.069Z,10.78
2023-03-17T21:22:19.480Z,10.74
2023-03-17T21:24:49.024Z,10.72
2023-03-17T21:27:18.404Z,10.70
2023-03-17T21:29:48.216Z,10.68
2023-03-17T21:32:20.125Z,10.66
2023-03-17T21:34:49.458Z,10.61
2023-03-17T21:37:18.858Z,10.55
2023-03-17T21:39:48.528Z,10.44
2023-03-17T21:42:17.966Z,10.30
2023-03-17T21:44:48.359Z,10.20
2023-03-17T21:47:20.619Z,10.12
2023-03-17T21:49:49.962Z,10.04
2023-03-17T21:52:20.871Z,9.98
2023-03-17T21:54:50.473Z,9.94
2023-03-17T21:57:19.804Z,9.90
2023-03-17T21:59:49.148Z,9.86
2023-03-17T22:02:21.076Z,9.83
2023-03-17T22:04:50.410Z,9.83
2023-03-17T22:07:19.781Z,9.84
2023-03-17T22:09:49.243Z,9.86
2023-03-17T22:12:19.286Z,9.89
2023-03-17T22:14:48.610Z,9.93
2023-03-17T22:17:17.939Z,9.98
2023-03-17T22:19:49.888Z,10.03
2023-03-17T22:22:20.524Z,10.05
2023-03-17T22:24:49.903Z,10.07
2023-03-17T22:27:19.989Z,10.10
2023-03-17T22:29:49.420Z,10.12
2023-03-17T22:32:18.769Z,10.12
2023-03-17T22:34:51.278Z,10.13
2023-03-17T22:37:20.799Z,10.13
2023-03-17T22:39:50.191Z,10.12
2023-03-17T22:42:19.529Z,10.12
2023-03-17T22:44:48.897Z,10.11
2023-03-17T22:47:18.224Z,10.09
2023-03-17T22:49:47.618Z,10.08
2023-03-17T22:52:19.523Z,10.07
2023-03-17T22:54:48.880Z,10.08
2023-03-17T22:57:18.203Z,10.07
2023-03-17T22:59:47.684Z,10.07
2023-03-17T23:02:18.566Z,10.07
2023-03-17T23:04:49.171Z,10.06
2023-03-17T23:07:21.227Z,10.07
2023-03-17T23:09:50.574Z,10.08
2023-03-17T23:12:23.025Z,10.10
2023-03-17T23:14:52.436Z,10.11
2023-03-17T23:17:21.868Z,10.12
2023-03-17T23:19:51.226Z,10.12
2023-03-17T23:22:23.128Z,10.12
2023-03-17T23:24:53.301Z,10.14
2023-03-17T23:27:22.644Z,10.15
2023-03-17T23:29:53.156Z,10.17
2023-03-17T23:32:22.620Z,10.20
2023-03-17T23:34:51.984Z,10.24
2023-03-17T23:37:23.902Z,10.27
2023-03-17T23:39:53.356Z,10.33
2023-03-17T23:42:22.666Z,10.37
2023-03-17T23:44:52.074Z,10.43
2023-03-17T23:47:22.522Z,10.46
2023-03-17T23:49:53.232Z,10.49
2023-03-17T23:52:25.691Z,10.53
2023-03-17T23:54:55.026Z,10.55
2023-03-17T23:57:24.333Z,10.56
2023-03-17T23:59:53.694Z,10.58
